Terminal Aerodrome Forecast
Issued by NWS

Home | Current Version | Previous Version | Text Only | Print | Product List | Glossary On
Versions: 1 2 3 4 5 6 7 8 9 10 11 12 13 14 15 16 17 18 19 20 21 22 23 24 25 26 27 28 29 30 31 32 33 34 35 36
000
FTUS42 KCAE 262200 AAB
TAFDNL
TAF AMD
KDNL 262209Z 2622/2718 22010KT P6SM BKN040
     FM270000 21007KT P6SM VCSH OVC050
     FM270700 VRB06KT 4SM -SHRA BR SCT007 OVC025
     FM271100 23007KT 3SM -SHRA OVC008
     FM271400 32012G18KT P6SM -RA OVC025=

USA.gov is the U.S. government's official web portal to all federal, state and local government web resources and services.